Nypd 316 — WDI5351 — position and weather

sailwx.info

Track history (hours):
 
Tides and Currents Weather Stations Pressure Air Temp Water Temp Dewpoint Dewpoint Depression Visibility Wind Speed Wind Dir Waves Ship Positions

Nypd 316

Owner: New York City Police Department, Brooklyn, NY. More information available from US FCC via Universal Licensing System.

Last reported at 2018-Jun-19 21:52 UTC. Time now 2018-Jun-20 05:33 UTC.
Position N 40°39' W 074°02'.

Length 11 m; draft 1 m.

Type: Law enforcement. MMSI: 367707670.

Date/timePositionNaut miles runAvg speedWind from/ knotsBaromVisibWave heightAir tempDewpointWater temp
2018-Jun-19 21:52N 40°39' W 074°02'412.2
2018-Jun-19 21:31N 40°43' W 073°59'4 8.6
2018-Jun-19 20:59N 40°39' W 074°02'0 0.1
2018-Jun-19 20:30N 40°39' W 074°02'0 0.0
2018-Jun-19 19:15N 40°39' W 074°02'0 0.0
2018-Jun-19 19:00N 40°39' W 074°02'0 0.0
2018-Jun-18 23:06N 40°39' W 074°02'219.1
2018-Jun-18 23:00N 40°38' W 074°04'4 0.8
2018-Jun-18 17:42N 40°39' W 074°09'2 7.5
2018-Jun-18 17:27N 40°39' W 074°07'4 8.4
2018-Jun-18 17:00N 40°39' W 074°02'0 0.0
2018-Jun-16 23:29N 40°39' W 074°02'7 1.4
2018-Jun-16 18:24N 40°34' W 073°56'5 8.3
2018-Jun-16 17:48N 40°36' W 074°02'  
2018-Jun-14 02:06N 40°39' W 074°02'329.2
2018-Jun-14 02:00N 40°41' W 074°01'2 5.0
2018-Jun-14 01:30N 40°43' W 073°58'1 2.4
2018-Jun-14 01:00N 40°43' W 073°60'4 0.1
2018-Jun-11 22:37N 40°39' W 074°02'112.5
2018-Jun-11 22:30N 40°40' W 074°01'3 5.4
2018-Jun-11 22:01N 40°43' W 074°01'1 0.9
2018-Jun-11 20:45N 40°42' W 074°00'  
Track history (hours):
 
Tides and Currents Weather Stations Pressure Air Temp Water Temp Dewpoint Dewpoint Depression Visibility Wind Speed Wind Dir Waves Ship Positions

Nypd 316

Owner: New York City Police Department, Brooklyn, NY. More information available from US FCC via Universal Licensing System.

Last reported at 2018-Jun-19 21:52 UTC. Time now 2018-Jun-20 05:33 UTC.
Position N 40°39' W 074°02'.

Length 11 m; draft 1 m.

Type: Law enforcement. MMSI: 367707670.

Date/timePositionNaut miles runAvg speedWind from/ knotsBaromVisibWave heightAir tempDewpointWater temp
2018-Jun-19 21:52N 40°39' W 074°02'412.2
2018-Jun-19 21:31N 40°43' W 073°59'4 8.6
2018-Jun-19 20:59N 40°39' W 074°02'0 0.1
2018-Jun-19 20:30N 40°39' W 074°02'0 0.0
2018-Jun-19 19:15N 40°39' W 074°02'0 0.0
2018-Jun-19 19:00N 40°39' W 074°02'0 0.0
2018-Jun-18 23:06N 40°39' W 074°02'219.1
2018-Jun-18 23:00N 40°38' W 074°04'4 0.8
2018-Jun-18 17:42N 40°39' W 074°09'2 7.5
2018-Jun-18 17:27N 40°39' W 074°07'4 8.4
2018-Jun-18 17:00N 40°39' W 074°02'0 0.0
2018-Jun-16 23:29N 40°39' W 074°02'7 1.4
2018-Jun-16 18:24N 40°34' W 073°56'5 8.3
2018-Jun-16 17:48N 40°36' W 074°02'  
2018-Jun-14 02:06N 40°39' W 074°02'329.2
2018-Jun-14 02:00N 40°41' W 074°01'2 5.0
2018-Jun-14 01:30N 40°43' W 073°58'1 2.4
2018-Jun-14 01:00N 40°43' W 073°60'4 0.1
2018-Jun-11 22:37N 40°39' W 074°02'112.5
2018-Jun-11 22:30N 40°40' W 074°01'3 5.4
2018-Jun-11 22:01N 40°43' W 074°01'1 0.9
2018-Jun-11 20:45N 40°42' W 074°00'  

Dump ship's entire track history